Time;durP1;ratioP1;P1;durP2;ratioP2;P2;SDS_P1;SDS_P2;PMS_P1;PMS_P2;Temp;Humidity;BMP_temperature;BMP_pressure;BME280_temperature;BME280_humidity;BME280_pressure;Samples;Min_cycle;Max_cycle;Signal;HPM_P1;HPM_P2
2022/07/22 00:00:47;;;;;;;;;;;;;;;;;;2106131;28;19928;-43
2022/07/22 00:01:48;;;;;;;;;;;;;;;;;;2106055;28;19974;-43
2022/07/22 00:02:49;;;;;;;;;;;;;;;;;;2106081;28;20277;-43
2022/07/22 00:03:50;;;;;;;;;;;;;;;;;;2106112;28;19928;-43
2022/07/22 00:04:51;;;;;;;;;;;;;;;;;;2106055;28;19924;-43
2022/07/22 00:05:52;;;;;;;;;;;;;;;;;;2106041;28;20241;-43
2022/07/22 00:06:53;;;;;;;;;;;;;;;;;;2105956;28;19924;-44
2022/07/22 00:07:53;;;;;;;;;;;;;;;;;;2106178;28;19924;-43
2022/07/22 00:08:54;;;;;;;;;;;;;;;;;;2106033;28;19924;-43
2022/07/22 00:09:55;;;;;;;;;;;;;;;;;;2106180;28;19928;-43
2022/07/22 00:10:56;;;;;;;;;;;;;;;;;;2105769;28;20393;-43
2022/07/22 00:11:57;;;;;;;;;;;;;;;;;;2097644;28;19960;-44
2022/07/22 00:12:58;;;;;;;;;;;;;;;;;;2097785;28;19954;-43
2022/07/22 00:13:59;;;;;;;;;;;;;;;;;;2097651;28;19928;-43
2022/07/22 00:15:00;;;;;;;;;;;;;;;;;;2097594;28;19925;-43
2022/07/22 00:16:01;;;;;;;;;;;;;;;;;;2097484;28;19940;-43
2022/07/22 00:17:02;;;;;;;;;;;;;;;;;;2097783;28;19932;-43
2022/07/22 00:18:02;;;;;;;;;;;;;;;;;;2097595;28;19978;-43
2022/07/22 00:19:03;;;;;;;;;;;;;;;;;;2097769;28;19924;-43
2022/07/22 00:20:04;;;;;;;;;;;;;;;;;;2104994;28;19999;-44
2022/07/22 00:21:05;;;;;;;;;;;;;;;;;;2105699;28;19924;-43
2022/07/22 00:22:10;;;;;;;;;;;;;;;;;;2105982;28;19959;-43
2022/07/22 00:23:11;;;;;;;;;;;;;;;;;;2105965;28;19931;-44
2022/07/22 00:24:12;;;;;;;;;;;;;;;;;;2106006;28;20023;-44
2022/07/22 00:25:13;;;;;;;;;;;;;;;;;;2105991;28;19932;-44
2022/07/22 00:26:14;;;;;;;;;;;;;;;;;;2105907;28;20384;-44
2022/07/22 00:27:15;;;;;;;;;;;;;;;;;;2105952;28;19952;-44
2022/07/22 00:28:15;;;;;;;;;;;;;;;;;;2106062;28;20007;-43
2022/07/22 00:29:17;;;;;;;;;;;;;;;;;;2106302;28;19935;-43
2022/07/22 00:30:17;;;;;;;;;;;;;;;;;;2107429;28;19945;-44
2022/07/22 00:31:18;;;;;;;;;;;;;;;;;;2107464;28;20372;-44
2022/07/22 00:32:19;;;;;;;;;;;;;;;;;;2107582;28;19924;-48
2022/07/22 00:33:20;;;;;;;;;;;;;;;;;;2107532;28;19959;-47
2022/07/22 00:34:21;;;;;;;;;;;;;;;;;;2107511;28;20010;-46
2022/07/22 00:35:22;;;;;;;;;;;;;;;;;;2107408;28;20023;-47
2022/07/22 00:36:23;;;;;;;;;;;;;;;;;;2107380;28;19924;-47
2022/07/22 00:37:24;;;;;;;;;;;;;;;;;;2107393;28;20357;-49
2022/07/22 00:38:25;;;;;;;;;;;;;;;;;;2107470;28;19935;-46
2022/07/22 00:39:26;;;;;;;;;;;;;;;;;;2107474;28;19924;-47
2022/07/22 00:40:27;;;;;;;;;;;;;;;;;;2107342;28;19972;-46
2022/07/22 00:41:28;;;;;;;;;;;;;;;;;;2107275;28;19927;-47
2022/07/22 00:42:28;;;;;;;;;;;;;;;;;;2107434;28;19928;-47
2022/07/22 00:43:29;;;;;;;;;;;;;;;;;;2107315;28;20418;-48
2022/07/22 00:44:30;;;;;;;;;;;;;;;;;;2107376;28;20045;-47
2022/07/22 00:45:37;;;;;;;;;;;;;;;;;;2107326;28;19928;-47
2022/07/22 00:46:38;;;;;;;;;;;;;;;;;;2107424;28;20015;-46
2022/07/22 00:47:39;;;;;;;;;;;;;;;;;;2107274;28;19947;-46
2022/07/22 00:48:40;;;;;;;;;;;;;;;;;;2107349;28;20388;-48
2022/07/22 00:49:41;;;;;;;;;;;;;;;;;;2107397;28;19924;-47
2022/07/22 00:50:42;;;;;;;;;;;;;;;;;;2107418;28;20310;-47
2022/07/22 00:51:43;;;;;;;;;;;;;;;;;;2107224;28;19939;-48
2022/07/22 00:52:43;;;;;;;;;;;;;;;;;;2107275;28;20361;-48
2022/07/22 00:53:44;;;;;;;;;;;;;;;;;;2107348;28;19963;-47
2022/07/22 00:54:45;;;;;;;;;;;;;;;;;;2107337;28;20018;-47
2022/07/22 00:55:46;;;;;;;;;;;;;;;;;;2107447;28;20297;-47
2022/07/22 00:56:47;;;;;;;;;;;;;;;;;;2107184;28;19971;-48
2022/07/22 00:57:48;;;;;;;;;;;;;;;;;;2107285;28;19924;-46
2022/07/22 00:58:49;;;;;;;;;;;;;;;;;;2107286;28;19951;-47
2022/07/22 00:59:50;;;;;;;;;;;;;;;;;;2107351;28;19959;-46
2022/07/22 01:00:51;;;;;;;;;;;;;;;;;;2107258;28;20303;-46
2022/07/22 01:01:51;;;;;;;;;;;;;;;;;;2107239;28;20274;-47
2022/07/22 01:02:53;;;;;;;;;;;;;;;;;;2107592;28;19924;-43
2022/07/22 01:03:53;;;;;;;;;;;;;;;;;;2107111;28;20011;-42
2022/07/22 01:05:01;;;;;;;;;;;;;;;;;;2107398;28;19970;-43
2022/07/22 01:06:02;;;;;;;;;;;;;;;;;;2107112;28;19924;-43
2022/07/22 01:07:03;;;;;;;;;;;;;;;;;;2107303;28;19924;-43
2022/07/22 01:08:03;;;;;;;;;;;;;;;;;;2107191;28;19924;-43
2022/07/22 01:09:04;;;;;;;;;;;;;;;;;;2107349;28;20000;-43
2022/07/22 01:10:05;;;;;;;;;;;;;;;;;;2107192;28;20493;-43
2022/07/22 01:11:06;;;;;;;;;;;;;;;;;;2105615;28;19959;-43
2022/07/22 01:12:07;;;;;;;;;;;;;;;;;;2098795;28;19936;-43
2022/07/22 01:13:08;;;;;;;;;;;;;;;;;;2098878;28;19924;-43
2022/07/22 01:14:09;;;;;;;;;;;;;;;;;;2098657;28;20009;-42
2022/07/22 01:15:09;;;;;;;;;;;;;;;;;;2098762;28;19924;-42
2022/07/22 01:16:10;;;;;;;;;;;;;;;;;;2104894;28;19971;-43
2022/07/22 01:17:11;;;;;;;;;;;;;;;;;;2107013;28;19924;-43
2022/07/22 01:18:12;;;;;;;;;;;;;;;;;;2107281;28;19931;-44
2022/07/22 01:19:13;;;;;;;;;;;;;;;;;;2107095;28;19971;-43
2022/07/22 01:20:14;;;;;;;;;;;;;;;;;;2107256;28;20015;-43
2022/07/22 01:21:15;;;;;;;;;;;;;;;;;;2107118;28;19946;-43
2022/07/22 01:22:16;;;;;;;;;;;;;;;;;;2107147;28;20014;-42
2022/07/22 01:23:17;;;;;;;;;;;;;;;;;;2107179;28;20286;-43
2022/07/22 01:24:18;;;;;;;;;;;;;;;;;;2107177;28;20015;-43
2022/07/22 01:25:19;;;;;;;;;;;;;;;;;;2106976;28;20391;-42
2022/07/22 01:26:20;;;;;;;;;;;;;;;;;;2106963;28;19960;-48
2022/07/22 01:27:21;;;;;;;;;;;;;;;;;;2107016;28;19924;-44
2022/07/22 01:28:22;;;;;;;;;;;;;;;;;;2106834;28;20365;-42
2022/07/22 01:29:23;;;;;;;;;;;;;;;;;;2107163;28;19923;-42
2022/07/22 01:30:24;;;;;;;;;;;;;;;;;;2107165;28;19924;-42
2022/07/22 01:31:25;;;;;;;;;;;;;;;;;;2107134;28;19924;-45
2022/07/22 01:32:26;;;;;;;;;;;;;;;;;;2107060;28;19928;-45
2022/07/22 01:33:26;;;;;;;;;;;;;;;;;;2107042;28;20396;-45
2022/07/22 01:34:27;;;;;;;;;;;;;;;;;;2107761;28;19928;-46
2022/07/22 01:35:28;;;;;;;;;;;;;;;;;;2115612;28;20022;-46
2022/07/22 01:36:29;;;;;;;;;;;;;;;;;;2115615;28;19966;-46
2022/07/22 01:37:30;;;;;;;;;;;;;;;;;;2115324;28;20007;-46
2022/07/22 01:38:31;;;;;;;;;;;;;;;;;;2115554;28;19924;-46
2022/07/22 01:39:32;;;;;;;;;;;;;;;;;;2115521;28;19924;-46
2022/07/22 01:40:33;;;;;;;;;;;;;;;;;;2115476;28;19924;-45
2022/07/22 01:41:34;;;;;;;;;;;;;;;;;;2114483;28;20381;-45
2022/07/22 01:42:35;;;;;;;;;;;;;;;;;;2115773;28;19967;-46
2022/07/22 01:43:35;;;;;;;;;;;;;;;;;;2115311;28;19924;-46
2022/07/22 01:44:36;;;;;;;;;;;;;;;;;;2115073;28;19924;-46
2022/07/22 01:45:37;;;;;;;;;;;;;;;;;;2115071;28;19997;-45
2022/07/22 01:46:38;;;;;;;;;;;;;;;;;;2115260;28;20376;-45
2022/07/22 01:47:39;;;;;;;;;;;;;;;;;;2107129;28;19931;-46
2022/07/22 01:48:40;;;;;;;;;;;;;;;;;;2106949;28;19931;-45
2022/07/22 01:49:41;;;;;;;;;;;;;;;;;;2106900;28;20424;-45
2022/07/22 01:50:42;;;;;;;;;;;;;;;;;;2106819;28;19954;-43
2022/07/22 01:51:42;;;;;;;;;;;;;;;;;;2106859;28;19993;-42
2022/07/22 01:52:43;;;;;;;;;;;;;;;;;;2106788;28;20300;-43
2022/07/22 01:53:44;;;;;;;;;;;;;;;;;;2107200;28;20392;-44
2022/07/22 01:54:45;;;;;;;;;;;;;;;;;;2106900;28;19924;-43
2022/07/22 01:55:46;;;;;;;;;;;;;;;;;;2106962;28;19999;-43
2022/07/22 01:56:47;;;;;;;;;;;;;;;;;;2106937;28;20301;-43
2022/07/22 01:57:48;;;;;;;;;;;;;;;;;;2107051;28;20265;-43
2022/07/22 01:58:49;;;;;;;;;;;;;;;;;;2106801;28;19924;-44
2022/07/22 01:59:49;;;;;;;;;;;;;;;;;;2106983;28;20428;-43
2022/07/22 02:00:50;;;;;;;;;;;;;;;;;;2106985;28;19924;-43
2022/07/22 02:01:51;;;;;;;;;;;;;;;;;;2107126;28;19924;-44
2022/07/22 02:02:52;;;;;;;;;;;;;;;;;;2107166;28;20005;-46
2022/07/22 02:03:53;;;;;;;;;;;;;;;;;;2107033;28;20389;-47
2022/07/22 02:04:54;;;;;;;;;;;;;;;;;;2106764;28;19968;-46
2022/07/22 02:05:55;;;;;;;;;;;;;;;;;;2107019;28;20015;-46
2022/07/22 02:06:56;;;;;;;;;;;;;;;;;;2106922;28;19928;-43
2022/07/22 02:07:57;;;;;;;;;;;;;;;;;;2106846;28;20367;-44
2022/07/22 02:08:58;;;;;;;;;;;;;;;;;;2106821;28;19963;-45
2022/07/22 02:10:00;;;;;;;;;;;;;;;;;;2106935;28;19930;-44
2022/07/22 02:11:01;;;;;;;;;;;;;;;;;;2106523;28;20022;-44
2022/07/22 02:12:02;;;;;;;;;;;;;;;;;;2106686;28;19931;-43
2022/07/22 02:13:03;;;;;;;;;;;;;;;;;;2106608;28;20418;-44
2022/07/22 02:14:03;;;;;;;;;;;;;;;;;;2106743;28;20411;-44
2022/07/22 02:15:05;;;;;;;;;;;;;;;;;;2106728;28;19974;-44
2022/07/22 02:16:05;;;;;;;;;;;;;;;;;;2106655;28;20026;-43
2022/07/22 02:17:06;;;;;;;;;;;;;;;;;;2107050;28;19959;-46
2022/07/22 02:18:07;;;;;;;;;;;;;;;;;;2106757;28;19928;-47
2022/07/22 02:19:08;;;;;;;;;;;;;;;;;;2106826;28;19966;-46
2022/07/22 02:20:09;;;;;;;;;;;;;;;;;;2106630;28;19924;-46
2022/07/22 02:21:10;;;;;;;;;;;;;;;;;;2106969;28;19924;-46
2022/07/22 02:22:11;;;;;;;;;;;;;;;;;;2106623;28;19959;-47
2022/07/22 02:23:12;;;;;;;;;;;;;;;;;;2106817;28;19924;-46
2022/07/22 02:24:12;;;;;;;;;;;;;;;;;;2106805;28;19924;-46
2022/07/22 02:25:13;;;;;;;;;;;;;;;;;;2106852;28;19974;-47
2022/07/22 02:26:15;;;;;;;;;;;;;;;;;;2106663;28;20413;-46
2022/07/22 02:27:16;;;;;;;;;;;;;;;;;;2106742;28;19931;-47
2022/07/22 02:28:17;;;;;;;;;;;;;;;;;;2106646;28;19924;-46
2022/07/22 02:29:18;;;;;;;;;;;;;;;;;;2106825;28;19977;-45
2022/07/22 02:30:18;;;;;;;;;;;;;;;;;;2106690;28;20266;-43
2022/07/22 02:31:20;;;;;;;;;;;;;;;;;;2106785;28;19970;-47
2022/07/22 02:32:21;;;;;;;;;;;;;;;;;;2106886;28;19931;-46
2022/07/22 02:33:22;;;;;;;;;;;;;;;;;;2106699;28;19924;-46
2022/07/22 02:34:22;;;;;;;;;;;;;;;;;;2106649;28;19924;-46
2022/07/22 02:35:23;;;;;;;;;;;;;;;;;;2106521;28;20473;-45
2022/07/22 02:36:24;;;;;;;;;;;;;;;;;;2106791;28;19980;-44
2022/07/22 02:37:25;;;;;;;;;;;;;;;;;;2106835;28;19924;-46
2022/07/22 02:38:26;;;;;;;;;;;;;;;;;;2106487;28;20400;-46
2022/07/22 02:39:27;;;;;;;;;;;;;;;;;;2106644;28;19924;-46
2022/07/22 02:40:28;;;;;;;;;;;;;;;;;;2106578;28;19935;-47
2022/07/22 02:41:29;;;;;;;;;;;;;;;;;;2106635;28;19970;-47
2022/07/22 02:42:30;;;;;;;;;;;;;;;;;;2106760;28;19975;-43
2022/07/22 02:43:30;;;;;;;;;;;;;;;;;;2106548;28;20376;-44
2022/07/22 02:44:31;;;;;;;;;;;;;;;;;;2106621;28;19955;-44
2022/07/22 02:45:32;;;;;;;;;;;;;;;;;;2106702;28;19924;-44
2022/07/22 02:46:33;;;;;;;;;;;;;;;;;;2106577;28;19924;-46
2022/07/22 02:47:34;;;;;;;;;;;;;;;;;;2106972;28;20371;-44
2022/07/22 02:48:35;;;;;;;;;;;;;;;;;;2106540;28;19924;-44
2022/07/22 02:49:36;;;;;;;;;;;;;;;;;;2106568;28;20572;-45
2022/07/22 02:50:37;;;;;;;;;;;;;;;;;;2106892;28;19970;-44
2022/07/22 02:51:38;;;;;;;;;;;;;;;;;;2106655;28;19930;-46
2022/07/22 02:52:39;;;;;;;;;;;;;;;;;;2106637;28;19956;-44
2022/07/22 02:53:40;;;;;;;;;;;;;;;;;;2106437;28;20309;-44
2022/07/22 02:54:41;;;;;;;;;;;;;;;;;;2106506;28;19931;-44
2022/07/22 02:55:41;;;;;;;;;;;;;;;;;;2106726;28;19924;-45
2022/07/22 02:56:43;;;;;;;;;;;;;;;;;;2106390;28;19924;-45
2022/07/22 02:57:43;;;;;;;;;;;;;;;;;;2106793;28;20014;-44
2022/07/22 02:58:46;;;;;;;;;;;;;;;;;;2106816;28;20022;-47
2022/07/22 02:59:47;;;;;;;;;;;;;;;;;;2106506;28;20042;-47
2022/07/22 03:00:48;;;;;;;;;;;;;;;;;;2106465;28;20013;-46
2022/07/22 03:01:48;;;;;;;;;;;;;;;;;;2106579;28;19924;-46
2022/07/22 03:02:49;;;;;;;;;;;;;;;;;;2106387;28;19924;-47
2022/07/22 03:03:50;;;;;;;;;;;;;;;;;;2106385;28;19963;-46
2022/07/22 03:04:51;;;;;;;;;;;;;;;;;;2106587;28;20391;-46
2022/07/22 03:05:52;;;;;;;;;;;;;;;;;;2106495;28;20068;-47
2022/07/22 03:06:53;;;;;;;;;;;;;;;;;;2106412;28;19928;-46
2022/07/22 03:07:54;;;;;;;;;;;;;;;;;;2106559;28;20003;-46
2022/07/22 03:08:55;;;;;;;;;;;;;;;;;;2106500;28;19924;-44
2022/07/22 03:09:56;;;;;;;;;;;;;;;;;;2106431;28;19932;-45
2022/07/22 03:11:02;;;;;;;;;;;;;;;;;;2105374;28;19924;-44
2022/07/22 03:12:03;;;;;;;;;;;;;;;;;;2098036;28;20039;-44
2022/07/22 03:13:04;;;;;;;;;;;;;;;;;;2098458;28;20023;-47
2022/07/22 03:14:05;;;;;;;;;;;;;;;;;;2097947;28;20028;-47
2022/07/22 03:15:05;;;;;;;;;;;;;;;;;;2098390;28;20015;-45
2022/07/22 03:16:06;;;;;;;;;;;;;;;;;;2097925;28;20357;-45
2022/07/22 03:17:07;;;;;;;;;;;;;;;;;;2097974;28;20293;-45
2022/07/22 03:18:08;;;;;;;;;;;;;;;;;;2097937;28;19978;-45
2022/07/22 03:19:09;;;;;;;;;;;;;;;;;;2097974;28;19924;-44
2022/07/22 03:20:10;;;;;;;;;;;;;;;;;;2097964;28;20485;-44
2022/07/22 03:21:11;;;;;;;;;;;;;;;;;;2098235;28;19962;-44
2022/07/22 03:22:12;;;;;;;;;;;;;;;;;;2097968;28;19925;-45
2022/07/22 03:23:13;;;;;;;;;;;;;;;;;;2098171;28;19924;-47
2022/07/22 03:24:14;;;;;;;;;;;;;;;;;;2097909;28;19963;-46
2022/07/22 03:25:14;;;;;;;;;;;;;;;;;;2098096;28;19932;-46
2022/07/22 03:26:15;;;;;;;;;;;;;;;;;;2098044;28;19925;-46
2022/07/22 03:27:16;;;;;;;;;;;;;;;;;;2097827;28;20021;-46
2022/07/22 03:28:17;;;;;;;;;;;;;;;;;;2098104;28;20428;-43
2022/07/22 03:29:18;;;;;;;;;;;;;;;;;;2098250;28;19936;-43
2022/07/22 03:30:19;;;;;;;;;;;;;;;;;;2098067;28;20022;-49
2022/07/22 03:31:20;;;;;;;;;;;;;;;;;;2097898;28;19964;-46
2022/07/22 03:32:21;;;;;;;;;;;;;;;;;;2097862;28;20289;-46
2022/07/22 03:33:22;;;;;;;;;;;;;;;;;;2098239;28;20018;-44
2022/07/22 03:34:24;;;;;;;;;;;;;;;;;;2097887;28;19956;-43
2022/07/22 03:35:25;;;;;;;;;;;;;;;;;;2098275;28;20181;-47
2022/07/22 03:36:26;;;;;;;;;;;;;;;;;;2097853;28;19928;-47
2022/07/22 03:37:26;;;;;;;;;;;;;;;;;;2098241;28;19925;-46
2022/07/22 03:38:27;;;;;;;;;;;;;;;;;;2098072;28;20418;-48
2022/07/22 03:39:28;;;;;;;;;;;;;;;;;;2097913;28;19978;-46
2022/07/22 03:40:29;;;;;;;;;;;;;;;;;;2097974;28;20015;-46
2022/07/22 03:41:30;;;;;;;;;;;;;;;;;;2097976;28;19925;-47
2022/07/22 03:42:31;;;;;;;;;;;;;;;;;;2098242;28;19931;-44
2022/07/22 03:43:32;;;;;;;;;;;;;;;;;;2097816;28;20337;-44
2022/07/22 03:44:33;;;;;;;;;;;;;;;;;;2098049;28;20015;-46
2022/07/22 03:45:34;;;;;;;;;;;;;;;;;;2098108;28;20373;-46
2022/07/22 03:46:34;;;;;;;;;;;;;;;;;;2097838;28;20303;-46
2022/07/22 03:47:35;;;;;;;;;;;;;;;;;;2098121;28;19932;-44
2022/07/22 03:48:36;;;;;;;;;;;;;;;;;;2097945;28;19968;-43
2022/07/22 03:49:37;;;;;;;;;;;;;;;;;;2097993;28;20370;-46
2022/07/22 03:50:38;;;;;;;;;;;;;;;;;;2097987;28;19936;-47
2022/07/22 03:51:39;;;;;;;;;;;;;;;;;;2097905;28;20368;-43
2022/07/22 03:52:40;;;;;;;;;;;;;;;;;;2097710;28;20420;-43
2022/07/22 03:53:41;;;;;;;;;;;;;;;;;;2097849;28;19932;-44
2022/07/22 03:54:41;;;;;;;;;;;;;;;;;;2097673;28;19925;-43
2022/07/22 03:55:42;;;;;;;;;;;;;;;;;;2097755;28;19959;-44
2022/07/22 03:56:43;;;;;;;;;;;;;;;;;;2097773;28;20366;-43
2022/07/22 03:57:44;;;;;;;;;;;;;;;;;;2097873;28;19932;-44
2022/07/22 03:58:45;;;;;;;;;;;;;;;;;;2097856;28;19930;-44
2022/07/22 03:59:46;;;;;;;;;;;;;;;;;;2097802;28;19924;-44
2022/07/22 04:00:47;;;;;;;;;;;;;;;;;;2097754;28;19925;-44
2022/07/22 04:01:48;;;;;;;;;;;;;;;;;;2097783;28;19982;-44
2022/07/22 04:02:49;;;;;;;;;;;;;;;;;;2097897;28;19924;-44
2022/07/22 04:03:50;;;;;;;;;;;;;;;;;;2097679;28;20357;-44
2022/07/22 04:04:51;;;;;;;;;;;;;;;;;;2104431;28;20022;-44
2022/07/22 04:05:52;;;;;;;;;;;;;;;;;;2107464;28;19970;-44
2022/07/22 04:06:53;;;;;;;;;;;;;;;;;;2107477;28;19924;-44
2022/07/22 04:07:54;;;;;;;;;;;;;;;;;;2107821;28;19928;-46
2022/07/22 04:08:54;;;;;;;;;;;;;;;;;;2107749;28;20373;-46
2022/07/22 04:10:04;;;;;;;;;;;;;;;;;;2107640;28;19924;-47
2022/07/22 04:11:05;;;;;;;;;;;;;;;;;;2106378;28;19931;-47
2022/07/22 04:12:06;;;;;;;;;;;;;;;;;;2099301;28;20019;-47
2022/07/22 04:13:07;;;;;;;;;;;;;;;;;;2099185;28;19924;-47
2022/07/22 04:14:08;;;;;;;;;;;;;;;;;;2099275;28;19928;-46
2022/07/22 04:15:09;;;;;;;;;;;;;;;;;;2099333;28;20288;-47
2022/07/22 04:16:10;;;;;;;;;;;;;;;;;;2099051;28;19995;-47
2022/07/22 04:17:11;;;;;;;;;;;;;;;;;;2099098;28;20393;-47
2022/07/22 04:18:17;;;;;;;;;;;;;;;;;;2099306;28;20015;-47
2022/07/22 04:19:18;;;;;;;;;;;;;;;;;;2099068;28;20027;-46
2022/07/22 04:20:19;;;;;;;;;;;;;;;;;;2099507;28;19924;-48
2022/07/22 04:21:20;;;;;;;;;;;;;;;;;;2099153;28;20411;-47
2022/07/22 04:22:20;;;;;;;;;;;;;;;;;;2099167;28;20011;-46
2022/07/22 04:23:21;;;;;;;;;;;;;;;;;;2099196;28;20284;-47
2022/07/22 04:24:22;;;;;;;;;;;;;;;;;;2099512;28;20359;-47
2022/07/22 04:25:23;;;;;;;;;;;;;;;;;;2099028;28;19925;-46
2022/07/22 04:26:24;;;;;;;;;;;;;;;;;;2099066;28;19932;-47
2022/07/22 04:27:25;;;;;;;;;;;;;;;;;;2099249;28;19924;-47
2022/07/22 04:28:26;;;;;;;;;;;;;;;;;;2099038;28;19971;-47
2022/07/22 04:29:27;;;;;;;;;;;;;;;;;;2099221;28;19925;-47
2022/07/22 04:30:27;;;;;;;;;;;;;;;;;;2099424;28;20009;-44
2022/07/22 04:31:28;;;;;;;;;;;;;;;;;;2098913;28;19932;-44
2022/07/22 04:32:29;;;;;;;;;;;;;;;;;;2099021;28;19936;-44
2022/07/22 04:33:30;;;;;;;;;;;;;;;;;;2099521;28;19924;-47
2022/07/22 04:34:31;;;;;;;;;;;;;;;;;;2098970;28;19928;-47
2022/07/22 04:35:32;;;;;;;;;;;;;;;;;;2099494;28;20305;-44
2022/07/22 04:36:33;;;;;;;;;;;;;;;;;;2099160;28;19924;-44
2022/07/22 04:37:34;;;;;;;;;;;;;;;;;;2098944;28;20019;-44
2022/07/22 04:38:34;;;;;;;;;;;;;;;;;;2099026;28;20428;-44
2022/07/22 04:39:35;;;;;;;;;;;;;;;;;;2099216;28;19960;-44
2022/07/22 04:40:36;;;;;;;;;;;;;;;;;;2099135;28;19932;-47
2022/07/22 04:41:37;;;;;;;;;;;;;;;;;;2099117;28;20019;-48
2022/07/22 04:42:38;;;;;;;;;;;;;;;;;;2099369;28;19975;-44
2022/07/22 04:43:39;;;;;;;;;;;;;;;;;;2098935;28;19932;-44
2022/07/22 04:44:40;;;;;;;;;;;;;;;;;;2099188;28;19928;-43
2022/07/22 04:45:41;;;;;;;;;;;;;;;;;;2099043;28;20408;-43
2022/07/22 04:46:42;;;;;;;;;;;;;;;;;;2099029;28;20027;-47
2022/07/22 04:47:43;;;;;;;;;;;;;;;;;;2098928;28;19960;-46
2022/07/22 04:48:44;;;;;;;;;;;;;;;;;;2098974;28;19939;-46
2022/07/22 04:49:45;;;;;;;;;;;;;;;;;;2099489;28;20050;-47
2022/07/22 04:50:46;;;;;;;;;;;;;;;;;;2099220;28;20019;-43
2022/07/22 04:51:48;;;;;;;;;;;;;;;;;;2099330;28;20219;-44
2022/07/22 04:52:48;;;;;;;;;;;;;;;;;;2099227;28;20011;-46
2022/07/22 04:53:50;;;;;;;;;;;;;;;;;;2098942;28;19924;-46
2022/07/22 04:54:51;;;;;;;;;;;;;;;;;;2099107;28;19974;-45
2022/07/22 04:55:52;;;;;;;;;;;;;;;;;;2098798;28;19975;-44
2022/07/22 04:56:53;;;;;;;;;;;;;;;;;;2099286;28;19931;-51
2022/07/22 04:57:54;;;;;;;;;;;;;;;;;;2099243;28;19924;-44
2022/07/22 04:58:55;;;;;;;;;;;;;;;;;;2098949;28;19960;-44
2022/07/22 04:59:56;;;;;;;;;;;;;;;;;;2099112;28;20388;-47
2022/07/22 05:00:57;;;;;;;;;;;;;;;;;;2103141;28;19979;-46
2022/07/22 05:01:58;;;;;;;;;;;;;;;;;;2107432;28;20061;-43
2022/07/22 05:02:58;;;;;;;;;;;;;;;;;;2107332;28;20420;-43
2022/07/22 05:04:00;;;;;;;;;;;;;;;;;;2107451;28;19973;-47
2022/07/22 05:05:00;;;;;;;;;;;;;;;;;;2107385;28;19931;-46
2022/07/22 05:06:02;;;;;;;;;;;;;;;;;;2107408;28;19980;-46
2022/07/22 05:07:02;;;;;;;;;;;;;;;;;;2107415;28;20281;-47
2022/07/22 05:08:03;;;;;;;;;;;;;;;;;;2107660;28;20003;-44
2022/07/22 05:09:04;;;;;;;;;;;;;;;;;;2107532;28;20018;-43
2022/07/22 05:10:05;;;;;;;;;;;;;;;;;;2107624;28;19924;-43
2022/07/22 05:11:06;;;;;;;;;;;;;;;;;;2105492;28;20019;-42
2022/07/22 05:12:07;;;;;;;;;;;;;;;;;;2098928;28;20011;-43
2022/07/22 05:13:08;;;;;;;;;;;;;;;;;;2098785;28;19924;-42
2022/07/22 05:14:09;;;;;;;;;;;;;;;;;;2098795;28;19925;-43
2022/07/22 05:15:10;;;;;;;;;;;;;;;;;;2099101;28;19960;-43
2022/07/22 05:16:11;;;;;;;;;;;;;;;;;;2097908;28;20405;-46
2022/07/22 05:17:12;;;;;;;;;;;;;;;;;;2098747;28;19932;-47
2022/07/22 05:18:16;;;;;;;;;;;;;;;;;;2098948;28;19924;-43
2022/07/22 05:19:17;;;;;;;;;;;;;;;;;;2098928;28;20324;-44
2022/07/22 05:20:19;;;;;;;;;;;;;;;;;;2098753;28;20023;-45
2022/07/22 05:21:20;;;;;;;;;;;;;;;;;;2098878;28;20017;-44
2022/07/22 05:22:20;;;;;;;;;;;;;;;;;;2099332;28;20004;-46
2022/07/22 05:23:21;;;;;;;;;;;;;;;;;;2098744;28;19970;-46
2022/07/22 05:24:22;;;;;;;;;;;;;;;;;;2098994;28;20027;-46
2022/07/22 05:25:23;;;;;;;;;;;;;;;;;;2099493;28;20281;-46
2022/07/22 05:26:24;;;;;;;;;;;;;;;;;;2099082;28;19956;-43
2022/07/22 05:27:27;;;;;;;;;;;;;;;;;;2098935;28;19924;-44
2022/07/22 05:28:27;;;;;;;;;;;;;;;;;;2099035;28;20373;-44
2022/07/22 05:29:28;;;;;;;;;;;;;;;;;;2099049;28;19928;-43
2022/07/22 05:30:29;;;;;;;;;;;;;;;;;;2099144;28;19951;-47
2022/07/22 05:31:31;;;;;;;;;;;;;;;;;;2099142;28;20297;-47
2022/07/22 05:32:31;;;;;;;;;;;;;;;;;;2099283;28;20300;-47
2022/07/22 05:33:32;;;;;;;;;;;;;;;;;;2099477;28;19924;-47
2022/07/22 05:34:33;;;;;;;;;;;;;;;;;;2099112;28;20011;-46
2022/07/22 05:35:34;;;;;;;;;;;;;;;;;;2099073;28;20370;-44
2022/07/22 05:36:35;;;;;;;;;;;;;;;;;;2098742;28;19924;-44
2022/07/22 05:37:36;;;;;;;;;;;;;;;;;;2098710;28;20019;-44
2022/07/22 05:38:37;;;;;;;;;;;;;;;;;;2099017;28;19924;-46
2022/07/22 05:39:38;;;;;;;;;;;;;;;;;;2098820;28;20085;-46
2022/07/22 05:40:39;;;;;;;;;;;;;;;;;;2099027;28;20006;-47
2022/07/22 05:41:39;;;;;;;;;;;;;;;;;;2099605;28;19980;-47
2022/07/22 05:42:40;;;;;;;;;;;;;;;;;;2098986;28;19959;-44
2022/07/22 05:43:41;;;;;;;;;;;;;;;;;;2099216;28;20378;-43
2022/07/22 05:44:42;;;;;;;;;;;;;;;;;;2098688;28;19956;-43
2022/07/22 05:45:43;;;;;;;;;;;;;;;;;;2098983;28;19970;-47
2022/07/22 05:46:44;;;;;;;;;;;;;;;;;;2099152;28;19924;-47
2022/07/22 05:47:45;;;;;;;;;;;;;;;;;;2099563;28;19928;-44
2022/07/22 05:48:46;;;;;;;;;;;;;;;;;;2098798;28;19924;-49
2022/07/22 05:49:47;;;;;;;;;;;;;;;;;;2099188;28;19925;-42
2022/07/22 05:50:48;;;;;;;;;;;;;;;;;;2098611;28;19929;-42
2022/07/22 05:51:49;;;;;;;;;;;;;;;;;;2099340;28;19924;-46
2022/07/22 05:52:50;;;;;;;;;;;;;;;;;;2098996;28;20259;-42
2022/07/22 05:53:51;;;;;;;;;;;;;;;;;;2098771;28;19924;-46
2022/07/22 05:54:52;;;;;;;;;;;;;;;;;;2099836;28;19924;-43
2022/07/22 05:55:53;;;;;;;;;;;;;;;;;;2098787;28;20031;-42
2022/07/22 05:56:54;;;;;;;;;;;;;;;;;;2100387;28;19956;-43
2022/07/22 05:57:54;;;;;;;;;;;;;;;;;;2106761;28;19923;-44
2022/07/22 05:58:56;;;;;;;;;;;;;;;;;;2107417;28;20058;-48
2022/07/22 05:59:57;;;;;;;;;;;;;;;;;;2107394;28;19924;-44
2022/07/22 06:00:58;;;;;;;;;;;;;;;;;;2107424;28;20043;-44
2022/07/22 06:01:59;;;;;;;;;;;;;;;;;;2107388;28;20045;-47
2022/07/22 06:03:00;;;;;;;;;;;;;;;;;;2106795;28;19989;-47
2022/07/22 06:04:01;;;;;;;;;;;;;;;;;;2106989;28;19924;-47
2022/07/22 06:05:02;;;;;;;;;;;;;;;;;;2106767;28;19924;-47
2022/07/22 06:06:04;;;;;;;;;;;;;;;;;;2106921;28;19924;-48
2022/07/22 06:07:06;;;;;;;;;;;;;;;;;;2107430;28;20331;-44
2022/07/22 06:08:07;;;;;;;;;;;;;;;;;;2107316;28;19931;-44
2022/07/22 06:09:08;;;;;;;;;;;;;;;;;;2107319;28;20403;-44
2022/07/22 06:10:08;;;;;;;;;;;;;;;;;;2106929;28;20020;-43
2022/07/22 06:11:09;;;;;;;;;;;;;;;;;;2105572;28;19970;-45
2022/07/22 06:12:10;;;;;;;;;;;;;;;;;;2098321;28;20376;-44
2022/07/22 06:13:11;;;;;;;;;;;;;;;;;;2098652;28;19925;-48
2022/07/22 06:14:12;;;;;;;;;;;;;;;;;;2098577;28;19967;-44
2022/07/22 06:15:13;;;;;;;;;;;;;;;;;;2098704;28;19925;-49
2022/07/22 06:16:14;;;;;;;;;;;;;;;;;;2098814;28;19931;-43
2022/07/22 06:17:15;;;;;;;;;;;;;;;;;;2098742;28;20074;-47
2022/07/22 06:18:16;;;;;;;;;;;;;;;;;;2098668;28;19925;-44
2022/07/22 06:19:16;;;;;;;;;;;;;;;;;;2098827;28;20011;-43
2022/07/22 06:20:18;;;;;;;;;;;;;;;;;;2099275;28;19967;-47
2022/07/22 06:21:18;;;;;;;;;;;;;;;;;;2098459;28;20429;-47
2022/07/22 06:22:19;;;;;;;;;;;;;;;;;;2098577;28;19938;-43
2022/07/22 06:23:20;;;;;;;;;;;;;;;;;;2098736;28;19924;-43
2022/07/22 06:24:21;;;;;;;;;;;;;;;;;;2099154;28;19948;-50
2022/07/22 06:25:26;;;;;;;;;;;;;;;;;;2098962;28;19925;-43
2022/07/22 06:26:44;;;;;;;;;;;;;;;;;;2098614;28;19932;-43
2022/07/22 06:27:45;;;;;;;;;;;;;;;;;;2098210;28;20471;-44
2022/07/22 06:28:46;;;;;;;;;;;;;;;;;;2098891;28;19975;-42
2022/07/22 06:29:47;;;;;;;;;;;;;;;;;;2098260;28;19960;-43
2022/07/22 06:30:48;;;;;;;;;;;;;;;;;;2098534;28;19932;-47
2022/07/22 06:31:48;;;;;;;;;;;;;;;;;;2098699;28;20023;-47
2022/07/22 06:32:50;;;;;;;;;;;;;;;;;;2098786;28;19931;-47
2022/07/22 06:33:56;;;;;;;;;;;;;;;;;;2099186;28;19924;-48
2022/07/22 06:34:57;;;;;;;;;;;;;;;;;;2098636;28;19967;-43
2022/07/22 06:35:58;;;;;;;;;;;;;;;;;;2098947;28;19929;-43
2022/07/22 06:36:59;;;;;;;;;;;;;;;;;;2098880;28;20020;-46
2022/07/22 06:38:00;;;;;;;;;;;;;;;;;;2098250;28;20493;-47
2022/07/22 06:39:08;;;;;;;;;;;;;;;;;;2098571;28;19931;-48
2022/07/22 06:40:09;;;;;;;;;;;;;;;;;;2098215;28;20359;-48
2022/07/22 06:41:10;;;;;;;;;;;;;;;;;;2098530;28;20373;-43
2022/07/22 06:42:11;;;;;;;;;;;;;;;;;;2098501;28;19960;-43
2022/07/22 06:43:12;;;;;;;;;;;;;;;;;;2099124;28;19935;-47
2022/07/22 06:44:13;;;;;;;;;;;;;;;;;;2099037;28;20298;-44
2022/07/22 06:45:14;;;;;;;;;;;;;;;;;;2098506;28;20469;-47
2022/07/22 06:46:15;;;;;;;;;;;;;;;;;;2098923;28;19932;-44
2022/07/22 06:47:16;;;;;;;;;;;;;;;;;;2098535;28;19947;-46
2022/07/22 06:48:17;;;;;;;;;;;;;;;;;;2098121;28;19936;-48
2022/07/22 06:49:17;;;;;;;;;;;;;;;;;;2098802;28;20553;-47
2022/07/22 06:50:19;;;;;;;;;;;;;;;;;;2098618;28;19982;-43
2022/07/22 06:51:20;;;;;;;;;;;;;;;;;;2098372;28;19924;-51
2022/07/22 06:52:21;;;;;;;;;;;;;;;;;;2098362;28;20054;-47
2022/07/22 06:53:22;;;;;;;;;;;;;;;;;;2101638;28;20380;-49
2022/07/22 06:54:23;;;;;;;;;;;;;;;;;;2106631;28;19931;-49
2022/07/22 06:55:24;;;;;;;;;;;;;;;;;;2107282;28;20003;-43
2022/07/22 06:56:25;;;;;;;;;;;;;;;;;;2106978;28;20341;-49
2022/07/22 06:57:26;;;;;;;;;;;;;;;;;;2107067;28;20026;-48